Time;durP1;ratioP1;P1;durP2;ratioP2;P2;SDS_P1;SDS_P2;PMS_P1;PMS_P2;Temp;Humidity;BMP_temperature;BMP_pressure;BME280_temperature;BME280_humidity;BME280_pressure;Samples;Min_cycle;Max_cycle;Signal;HPM_P1;HPM_P2
2021/08/21 00:06:19;;;;;;;5.68;3.92;;;;;;;17.27;76.78;100606.09;20737918;28;20484;-72
2021/08/21 00:16:21;;;;;;;8.80;4.63;;;;;;;17.25;77.10;100613.25;20733821;28;20508;-72
2021/08/21 00:26:23;;;;;;;9.98;5.10;;;;;;;17.34;76.31;100612.00;20746017;28;20435;-72
2021/08/21 00:36:25;;;;;;;10.80;5.00;;;;;;;16.98;78.03;100614.34;20751809;28;20057;-72
2021/08/21 00:46:27;;;;;;;7.78;5.15;;;;;;;16.88;78.91;100616.47;20750464;28;20729;-73
2021/08/21 00:56:29;;;;;;;7.97;5.20;;;;;;;16.75;79.48;100612.56;20750757;28;20045;-72
2021/08/21 01:06:31;;;;;;;7.65;4.70;;;;;;;16.73;79.84;100601.19;20749096;28;20093;-72
2021/08/21 01:16:32;;;;;;;7.53;4.95;;;;;;;16.72;79.67;100608.28;20749315;28;20112;-72
2021/08/21 01:26:34;;;;;;;8.50;4.78;;;;;;;16.47;81.05;100597.69;20748597;28;20042;-72
2021/08/21 01:36:49;;;;;;;7.15;4.95;;;;;;;16.36;81.10;100592.81;20746024;28;20046;-72
2021/08/21 01:46:51;;;;;;;7.65;4.65;;;;;;;16.19;81.40;100595.19;20746527;28;20185;-72
2021/08/21 01:57:04;;;;;;;8.13;4.97;;;;;;;16.09;81.89;100589.38;20746061;28;20050;-73
2021/08/21 02:07:07;;;;;;;8.07;5.05;;;;;;;16.01;81.67;100587.94;20744708;28;20574;-73
2021/08/21 02:17:09;;;;;;;7.38;4.88;;;;;;;15.94;82.01;100589.91;20744351;28;20046;-72
2021/08/21 02:27:12;;;;;;;7.60;4.88;;;;;;;15.92;82.46;100582.97;20743290;28;20459;-73
2021/08/21 02:37:14;;;;;;;7.63;4.63;;;;;;;15.85;82.86;100580.53;20742417;28;20050;-72
2021/08/21 02:47:16;;;;;;;7.43;5.13;;;;;;;15.81;82.75;100570.13;20741242;28;20119;-72
2021/08/21 02:57:18;;;;;;;7.75;4.90;;;;;;;15.75;82.88;100559.78;20741529;28;20116;-72
2021/08/21 03:07:19;;;;;;;8.45;5.40;;;;;;;15.55;83.70;100563.91;20739554;28;20050;-72
2021/08/21 03:17:22;;;;;;;8.98;5.05;;;;;;;15.54;83.61;100564.84;20739991;28;20489;-72
2021/08/21 03:27:23;;;;;;;7.65;4.72;;;;;;;15.51;83.86;100564.94;20739131;28;20053;-71
2021/08/21 03:37:25;;;;;;;7.80;4.95;;;;;;;15.35;84.33;100553.19;20737925;28;20500;-71
2021/08/21 03:47:27;;;;;;;8.98;5.32;;;;;;;15.40;84.28;100559.16;20737809;28;20048;-71
2021/08/21 03:57:29;;;;;;;8.95;5.13;;;;;;;15.29;84.58;100559.53;20738049;28;20104;-72
2021/08/21 04:07:30;;;;;;;8.65;5.93;;;;;;;15.30;84.20;100563.03;20736511;28;20050;-72
2021/08/21 04:17:32;;;;;;;10.73;6.43;;;;;;;15.36;83.88;100555.75;20736354;28;20042;-72
2021/08/21 04:27:34;;;;;;;9.23;5.90;;;;;;;15.31;83.55;100570.88;20735850;28;20050;-72
2021/08/21 04:37:36;;;;;;;10.55;5.60;;;;;;;15.31;83.22;100564.75;20735781;28;20110;-72
2021/08/21 04:47:38;;;;;;;10.20;5.72;;;;;;;15.35;83.54;100574.28;20735743;28;20039;-71
2021/08/21 04:57:40;;;;;;;11.40;5.85;;;;;;;15.47;82.94;100576.50;20734792;28;20050;-71
2021/08/21 05:07:45;;;;;;;10.38;5.88;;;;;;;15.37;83.32;100585.63;20736437;28;20046;-72
2021/08/21 05:17:50;;;;;;;9.05;5.85;;;;;;;15.55;82.90;100590.31;20748806;28;20058;-72
2021/08/21 05:27:53;;;;;;;8.43;5.63;;;;;;;15.76;82.33;100588.78;20748191;28;20053;-72
2021/08/21 05:37:55;;;;;;;9.25;5.60;;;;;;;15.85;82.00;100590.22;20746604;28;20045;-72
2021/08/21 05:47:57;;;;;;;8.82;5.68;;;;;;;15.74;82.31;100581.81;20746726;28;20054;-72
2021/08/21 05:57:59;;;;;;;9.43;5.90;;;;;;;16.02;81.16;100595.78;20743978;28;20495;-72
2021/08/21 06:08:01;;;;;;;10.25;5.00;;;;;;;16.12;81.06;100597.19;20745483;28;20104;-71
2021/08/21 06:18:04;;;;;;;11.57;6.50;;;;;;;16.14;80.67;100610.34;20744828;28;20115;-70
2021/08/21 06:28:06;;;;;;;10.30;5.63;;;;;;;16.36;80.13;100599.88;20744296;28;20054;-70
2021/08/21 06:38:08;;;;;;;9.52;5.60;;;;;;;16.59;79.33;100597.25;20739859;28;20463;-71
2021/08/21 06:48:09;;;;;;;7.65;5.03;;;;;;;16.86;78.41;100605.97;20741562;28;20060;-69
2021/08/21 06:58:11;;;;;;;8.05;4.78;;;;;;;17.15;77.02;100599.53;20740864;28;20049;-71
2021/08/21 07:08:17;;;;;;;8.75;4.05;;;;;;;17.44;76.00;100597.50;20703140;28;20037;-71
2021/08/21 07:18:19;;;;;;;7.25;4.40;;;;;;;17.76;75.54;100604.13;20655371;28;20042;-71
2021/08/21 07:28:20;;;;;;;7.10;4.32;;;;;;;18.04;74.07;100603.81;20738348;28;20046;-71
2021/08/21 07:38:22;;;;;;;6.63;4.13;;;;;;;18.35;72.23;100605.09;20714403;28;20120;-70
2021/08/21 07:48:24;;;;;;;9.07;4.15;;;;;;;18.39;71.99;100607.53;20657139;28;20055;-71
2021/08/21 07:58:25;;;;;;;8.52;3.88;;;;;;;18.81;70.96;100605.69;20657369;28;20046;-72
2021/08/21 08:08:27;;;;;;;8.77;4.10;;;;;;;19.06;69.84;100619.53;20661203;28;20516;-72
2021/08/21 08:18:29;;;;;;;8.68;3.75;;;;;;;19.41;68.59;100601.06;20735125;28;20096;-71
2021/08/21 08:28:30;;;;;;;6.50;4.28;;;;;;;19.84;68.46;100604.25;20737048;28;20053;-71
2021/08/21 08:38:32;;;;;;;9.50;4.40;;;;;;;20.09;66.15;100615.34;20736790;28;20488;-71
2021/08/21 08:48:37;;;;;;;7.68;4.07;;;;;;;20.22;64.33;100611.13;20747115;28;20058;-72
2021/08/21 08:58:39;;;;;;;7.75;4.05;;;;;;;20.53;63.52;100606.84;20751754;28;20464;-71
2021/08/21 09:08:41;;;;;;;9.30;4.35;;;;;;;21.07;63.19;100604.75;20703275;28;20058;-71
2021/08/21 09:18:47;;;;;;;6.70;4.00;;;;;;;21.33;61.55;100602.47;20742007;28;20080;-70
2021/08/21 09:28:51;;;;;;;5.60;3.55;;;;;;;21.85;61.17;100592.31;20748547;28;20046;-70
2021/08/21 09:38:52;;;;;;;6.78;3.53;;;;;;;22.13;59.75;100580.84;20747588;28;20093;-70
2021/08/21 09:49:08;;;;;;;6.68;3.90;;;;;;;22.48;59.15;100578.69;20747091;28;20104;-70
2021/08/21 09:59:10;;;;;;;7.20;3.90;;;;;;;22.72;58.33;100572.75;20746763;28;20049;-70
2021/08/21 10:09:12;;;;;;;6.90;4.03;;;;;;;23.09;56.60;100576.59;20746330;28;20046;-70
2021/08/21 10:19:18;;;;;;;7.15;3.40;;;;;;;23.32;57.63;100563.56;20668429;28;20050;-70
2021/08/21 10:29:20;;;;;;;6.63;3.70;;;;;;;23.56;55.78;100559.25;20664312;28;20453;-70
2021/08/21 10:39:30;;;;;;;6.15;3.30;;;;;;;23.82;56.02;100548.66;20662599;28;20047;-70
2021/08/21 10:49:43;;;;;;;7.28;3.53;;;;;;;24.31;53.53;100530.03;20662546;28;20272;-70
2021/08/21 10:59:47;;;;;;;10.05;3.83;;;;;;;24.51;55.31;100544.69;20661486;28;20058;-70
2021/08/21 11:10:12;;;;;;;5.70;3.28;;;;;;;24.62;53.11;100544.78;20659807;28;20137;-70
2021/08/21 11:20:28;;;;;;;7.35;3.60;;;;;;;25.07;53.36;100531.72;20741408;28;20054;-70
2021/08/21 11:30:30;;;;;;;5.72;3.35;;;;;;;25.23;52.70;100529.59;20739638;28;20111;-70
2021/08/21 11:40:38;;;;;;;6.68;4.18;;;;;;;25.01;51.50;100514.25;20740246;28;20061;-70
2021/08/21 11:50:42;;;;;;;7.43;3.75;;;;;;;25.31;50.47;100508.44;20739328;28;20053;-70
2021/08/21 12:00:52;;;;;;;5.75;3.83;;;;;;;25.49;51.14;100514.22;20737808;28;20593;-70
2021/08/21 12:11:02;;;;;;;7.65;4.30;;;;;;;25.52;51.31;100497.03;20727910;28;20134;-71
2021/08/21 12:21:06;;;;;;;7.45;3.72;;;;;;;25.56;52.54;100502.06;20699235;28;20046;-72
2021/08/21 12:31:09;;;;;;;7.80;4.33;;;;;;;25.75;51.93;100493.47;20749523;28;20042;-72
2021/08/21 12:41:17;;;;;;;7.47;4.45;;;;;;;25.98;51.80;100482.78;20747827;28;20049;-72
2021/08/21 12:51:37;;;;;;;10.70;4.10;;;;;;;26.20;51.33;100484.59;20749201;28;20389;-73
2021/08/21 13:01:39;;;;;;;6.70;3.88;;;;;;;26.41;49.88;100471.31;20747897;28;20050;-72
2021/08/21 13:11:42;;;;;;;6.17;3.90;;;;;;;26.32;50.73;100459.47;20743912;28;20046;-72
2021/08/21 13:21:45;;;;;;;7.77;4.00;;;;;;;26.24;49.60;100446.66;20742533;28;20052;-72
2021/08/21 13:31:47;;;;;;;6.18;3.85;;;;;;;26.52;48.70;100433.72;20743971;28;20104;-71
2021/08/21 13:41:48;;;;;;;5.57;3.47;;;;;;;26.78;48.01;100424.38;20744027;28;20049;-71
2021/08/21 13:51:50;;;;;;;7.13;4.18;;;;;;;27.02;48.28;100426.84;20744042;28;20050;-71
2021/08/21 14:01:52;;;;;;;5.80;3.70;;;;;;;26.83;46.23;100419.47;20743245;28;20420;-71
2021/08/21 14:11:53;;;;;;;6.25;3.70;;;;;;;26.67;48.66;100413.66;20743026;28;20045;-71
2021/08/21 14:21:55;;;;;;;6.50;3.90;;;;;;;27.25;46.68;100405.22;20741739;28;20062;-71
2021/08/21 14:31:57;;;;;;;5.25;3.33;;;;;;;27.07;41.39;100397.75;20740591;28;20128;-71
2021/08/21 14:41:59;;;;;;;5.72;3.13;;;;;;;26.86;42.01;100394.16;20739781;28;20049;-71
2021/08/21 14:52:02;;;;;;;5.93;3.25;;;;;;;27.08;43.48;100393.25;20739795;28;20045;-71
2021/08/21 15:02:13;;;;;;;4.57;3.28;;;;;;;27.23;44.28;100381.19;20738476;28;20550;-71
2021/08/21 15:12:16;;;;;;;6.18;3.55;;;;;;;27.11;45.20;100383.06;20735499;28;20100;-71
2021/08/21 15:22:18;;;;;;;7.57;3.30;;;;;;;27.22;44.27;100390.25;20733759;28;20045;-71
2021/08/21 15:32:19;;;;;;;5.85;4.03;;;;;;;26.85;44.77;100390.63;20737192;28;20050;-71
2021/08/21 15:42:25;;;;;;;6.32;4.00;;;;;;;26.90;44.98;100390.25;20736861;28;20492;-71
2021/08/21 15:52:26;;;;;;;8.88;4.32;;;;;;;26.92;46.66;100376.66;20735850;28;20041;-71
2021/08/21 16:02:28;;;;;;;7.60;4.30;;;;;;;26.96;46.10;100372.75;20732806;28;20121;-71
2021/08/21 16:12:32;;;;;;;12.07;6.85;;;;;;;27.00;46.67;100366.13;20726345;28;20046;-71
2021/08/21 16:22:33;;;;;;;6.50;4.32;;;;;;;26.56;48.15;100363.53;20732405;28;20420;-71
2021/08/21 16:32:35;;;;;;;7.55;4.60;;;;;;;26.73;47.63;100354.03;20730889;28;20048;-71
2021/08/21 16:42:37;;;;;;;6.45;4.15;;;;;;;26.87;46.97;100352.88;20733916;28;20046;-71
2021/08/21 16:52:38;;;;;;;6.40;4.40;;;;;;;26.78;47.77;100343.78;20734113;28;20038;-70
2021/08/21 17:02:39;;;;;;;7.10;4.20;;;;;;;26.65;47.85;100342.25;20716404;28;20053;-71
2021/08/21 17:12:42;;;;;;;6.35;4.43;;;;;;;26.41;49.67;100342.44;20735045;28;20103;-70
2021/08/21 17:22:43;;;;;;;7.72;5.05;;;;;;;26.08;51.45;100341.53;20743935;28;20048;-71
2021/08/21 17:32:45;;;;;;;7.05;5.25;;;;;;;25.80;52.75;100359.00;20742729;28;20497;-71
2021/08/21 17:42:46;;;;;;;7.43;4.53;;;;;;;25.39;54.14;100362.22;20738219;28;20096;-71
2021/08/21 17:52:48;;;;;;;7.82;4.93;;;;;;;25.19;55.12;100370.00;20743742;28;20046;-71
2021/08/21 18:02:50;;;;;;;7.68;5.50;;;;;;;24.73;58.43;100375.31;20742503;28;20096;-70
2021/08/21 18:12:53;;;;;;;8.75;4.90;;;;;;;24.36;60.00;100367.34;20743206;28;20550;-70
2021/08/21 18:22:56;;;;;;;8.50;5.43;;;;;;;23.95;61.38;100372.97;20740188;28;20046;-71
2021/08/21 18:32:57;;;;;;;7.35;4.90;;;;;;;23.60;62.38;100379.00;20739518;28;20053;-70
2021/08/21 18:42:59;;;;;;;7.15;4.90;;;;;;;23.34;64.35;100382.66;20739719;28;20120;-68
2021/08/21 18:53:03;;;;;;;7.20;4.75;;;;;;;23.14;64.60;100398.22;20725993;28;20384;-69
2021/08/21 19:03:05;;;;;;;7.83;5.20;;;;;;;22.76;66.21;100393.63;20732476;28;20099;-68
2021/08/21 19:13:07;;;;;;;10.85;5.28;;;;;;;22.38;67.43;100398.78;20740138;28;20088;-68
2021/08/21 19:23:08;;;;;;;11.27;7.15;;;;;;;22.16;68.70;100385.97;20734658;28;20042;-68
2021/08/21 19:33:10;;;;;;;9.00;6.05;;;;;;;22.24;68.78;100390.81;20733266;28;20077;-71
2021/08/21 19:43:12;;;;;;;9.20;7.03;;;;;;;22.21;68.45;100386.53;20729859;28;20057;-71
2021/08/21 19:53:14;;;;;;;9.32;6.03;;;;;;;22.05;70.41;100384.94;20729603;28;20104;-70
2021/08/21 20:03:16;;;;;;;9.15;6.85;;;;;;;21.82;71.40;100373.91;20733397;28;20054;-70
2021/08/21 20:13:18;;;;;;;10.48;7.00;;;;;;;21.72;71.17;100359.44;20715585;28;20094;-69
2021/08/21 20:23:21;;;;;;;9.15;5.82;;;;;;;21.58;71.79;100370.97;20731471;28;20128;-70
2021/08/21 20:33:22;;;;;;;7.55;5.90;;;;;;;21.53;72.39;100351.72;20730465;28;20049;-69
2021/08/21 20:43:24;;;;;;;10.55;6.80;;;;;;;21.27;73.68;100366.59;20732084;28;20096;-70
2021/08/21 20:53:26;;;;;;;8.32;6.50;;;;;;;21.20;74.04;100359.94;20745166;28;20046;-70
2021/08/21 21:03:27;;;;;;;9.05;6.57;;;;;;;21.25;74.17;100347.22;20743733;28;20042;-70
2021/08/21 21:13:29;;;;;;;10.48;7.05;;;;;;;20.96;76.06;100368.44;20721700;28;20046;-70
2021/08/21 21:23:32;;;;;;;10.35;6.72;;;;;;;20.95;75.83;100376.53;20741861;28;20052;-71
2021/08/21 21:33:34;;;;;;;10.98;6.82;;;;;;;20.74;76.23;100375.97;20743947;28;20562;-70
2021/08/21 21:43:35;;;;;;;9.57;6.07;;;;;;;20.70;76.11;100395.75;20736850;28;20562;-70
2021/08/21 21:53:37;;;;;;;12.85;7.32;;;;;;;20.47;77.01;100413.03;20710432;28;20487;-70
2021/08/21 22:03:39;;;;;;;10.45;6.65;;;;;;;20.56;76.36;100428.47;20731614;28;20054;-70
2021/08/21 22:13:42;;;;;;;13.85;7.45;;;;;;;20.63;75.62;100416.50;20728589;28;20484;-70
2021/08/21 22:23:44;;;;;;;13.07;7.43;;;;;;;20.59;76.32;100417.63;20727959;28;20411;-70
2021/08/21 22:33:47;;;;;;;10.10;6.93;;;;;;;20.61;76.48;100460.97;20730825;28;20137;-70
2021/08/21 22:43:49;;;;;;;8.85;5.90;;;;;;;20.59;75.64;100468.16;20730944;28;20096;-70
2021/08/21 22:53:51;;;;;;;11.27;5.60;;;;;;;20.66;76.10;100458.06;20725365;28;20046;-71
2021/08/21 23:03:53;;;;;;;11.57;6.32;;;;;;;19.45;85.12;100547.72;20720033;28;20058;-72
2021/08/21 23:13:56;;;;;;;10.45;6.35;;;;;;;19.66;85.61;100497.97;20726481;28;20048;-73
2021/08/21 23:23:58;;;;;;;9.55;5.80;;;;;;;19.69;85.72;100455.34;20728860;28;20107;-69
2021/08/21 23:34:00;;;;;;;8.20;4.57;;;;;;;19.65;85.69;100519.31;20718621;28;20053;-73
2021/08/21 23:44:02;;;;;;;12.25;5.15;;;;;;;19.08;85.06;100628.28;20726420;28;20050;-71
2021/08/21 23:54:04;;;;;;;12.10;5.40;;;;;;;18.86;85.23;100622.25;20722555;28;20049;-72
